Terminal Aerodrome Forecast
Issued by NWS

Home | Current Version | Previous Version | Text Only | Print | Product List | Glossary On
Versions: 1 2 3 4 5 6 7 8 9 10 11 12 13 14 15 16 17 18 19 20
000
FTUS41 KBGM 311100
TAFELM
TAF
KELM 311137Z 3112/0112 24006KT P6SM SCT030 BKN070
      TEMPO 3112/3115 5SM -SHRA BR OVC015
     FM311600 26010KT P6SM SCT050 BKN120
      TEMPO 3118/3122 5SM SHRA BR OVC035
     FM010100 VRB03KT P6SM BKN100
      TEMPO 0108/0112 4SM BR=

USA.gov is the U.S. government's official web portal to all federal, state and local government web resources and services.